EGHE Airport Information

Runway Information
Runway 14 Length 2123 ft width 75 ft
Elevation 104 ft Threshold ft Heading 139
Runway 32 Length 2123 ft Width 75 ft
Elevation 82 ft Threshold ft Heading 319
Runway 09 Length 1716 ft width 59 ft
Elevation 103 ft Threshold ft Heading 87
Runway 27 Length 1716 ft Width 59 ft
Elevation 105 ft Threshold ft Heading 267
Runway 18 Length 1312 ft width 147 ft
Elevation ft Threshold ft Heading 177
Runway 36 Length 1312 ft Width 147 ft
Elevation ft Threshold ft Heading 357
Airport Frequencies
Type TWR Name Scilly Isl Frequency 123.15 MHZ
Type RAD/APP Name Scilly Isl Frequency 123.15 MHZ
Airport Navaids
Type NDB Name St Marys Frequency 321 KHZ
Airport Weather Information & NOTAM
ADDS - METARS form results

(0203 UTC 13 September 2022)
Data provider http://aviationweather.gov/metar/data/
 
Forecast for: AMD
Text: TAF AMD EGHE 121628Z 1216/1218 06009KT 9999 FEW045
Forecast period: 1600 to 1800 UTC 12 September 2022
Forecast type: FROM: standard forecast or significant change
Winds: from the ENE (60 degrees) at 10 MPH (9 knots; 4.6 m/s)
Visibility: 6 or more miles (10+ km)
Ceiling: at least 12,000 feet AGL
Clouds: few clouds at 4500 feet AGL
Weather: no significant weather forecast for this period
Text: PROB40
Forecast period: 1600 to 1800 UTC 12 September 2022
Forecast type: TEMPORARY: The following changes expected for less than half the time period
Visibility: 4 miles (7 km)
Ceiling: unknown
Clouds: missing
Weather: SHRA  (rain showers)